Time;durP1;ratioP1;P1;durP2;ratioP2;P2;SDS_P1;SDS_P2;PMS_P1;PMS_P2;Temp;Humidity;BMP_temperature;BMP_pressure;BME280_temperature;BME280_humidity;BME280_pressure;Samples;Min_cycle;Max_cycle;Signal;HPM_P1;HPM_P2
2021/10/31 00:00:56;;;;;;;122.95;69.10;;;;;;;;;;6246364;28;20053;-66
2021/10/31 00:03:57;;;;;;;44.65;30.02;;;;;;;;;;6257283;28;20069;-65
2021/10/31 00:06:58;;;;;;;37.35;25.80;;;;;;;;;;6252250;28;20174;-65
2021/10/31 00:10:00;;;;;;;32.67;23.52;;;;;;;;;;6261073;28;20120;-66
2021/10/31 00:13:03;;;;;;;32.88;23.58;;;;;;;;;;6252231;28;20049;-65
2021/10/31 00:16:04;;;;;;;32.15;23.58;;;;;;;;;;6247012;28;20074;-66
2021/10/31 00:19:06;;;;;;;33.45;24.13;;;;;;;;;;6260473;28;20048;-65
2021/10/31 00:22:07;;;;;;;34.30;24.98;;;;;;;;;;6247576;28;20109;-66
2021/10/31 00:25:08;;;;;;;32.13;23.52;;;;;;;;;;6256351;28;20083;-66
2021/10/31 00:28:11;;;;;;;33.25;24.15;;;;;;;;;;6254875;28;20434;-66
2021/10/31 00:31:13;;;;;;;34.63;24.60;;;;;;;;;;6247918;28;20292;-66
2021/10/31 00:34:14;;;;;;;30.75;22.73;;;;;;;;;;6258058;28;20176;-66
2021/10/31 00:37:16;;;;;;;32.30;23.23;;;;;;;;;;6245594;28;20072;-66
2021/10/31 00:40:20;;;;;;;33.55;23.88;;;;;;;;;;6252898;28;20059;-66
2021/10/31 00:43:22;;;;;;;;;;;;;;;;;;6258921;28;20102;-66
2021/10/31 00:46:24;;;;;;;32.05;23.38;;;;;;;;;;6244384;28;19929;-66
2021/10/31 00:49:26;;;;;;;38.05;24.58;;;;;;;;;;6259026;28;20053;-66
2021/10/31 00:52:28;;;;;;;34.55;24.27;;;;;;;;;;6251777;28;20099;-66
2021/10/31 00:55:29;;;;;;;35.63;23.65;;;;;;;;;;6252275;28;20094;-66
2021/10/31 00:58:31;;;;;;;32.70;23.23;;;;;;;;;;6248085;28;20099;-65
2021/10/31 01:01:34;;;;;;;28.75;21.27;;;;;;;;;;6240824;28;20614;-66
2021/10/31 01:04:35;;;;;;;29.58;21.60;;;;;;;;;;6258870;28;20063;-66
2021/10/31 01:07:53;;;;;;;27.90;21.38;;;;;;;;;;6247459;28;20510;-66
2021/10/31 01:11:04;;;;;;;28.90;20.88;;;;;;;;;;6250100;28;20044;-66
2021/10/31 01:14:21;;;;;;;26.10;20.92;;;;;;;;;;6259223;28;20126;-65
2021/10/31 01:17:31;;;;;;;30.63;21.27;;;;;;;;;;6243486;28;20044;-66
2021/10/31 01:20:37;;;;;;;29.02;22.02;;;;;;;;;;6247151;28;20056;-66
2021/10/31 01:23:44;;;;;;;31.55;23.58;;;;;;;;;;6259297;28;20061;-65
2021/10/31 01:26:51;;;;;;;30.33;21.83;;;;;;;;;;6250198;28;20079;-65
2021/10/31 01:30:01;;;;;;;27.80;20.83;;;;;;;;;;6261919;28;20083;-66
2021/10/31 01:33:11;;;;;;;30.38;21.20;;;;;;;;;;6243318;28;20055;-65
2021/10/31 01:36:16;;;;;;;28.77;20.88;;;;;;;;;;6251265;28;20060;-65
2021/10/31 01:39:20;;;;;;;30.33;21.55;;;;;;;;;;6256783;28;20045;-65
2021/10/31 01:42:23;;;;;;;32.72;22.42;;;;;;;;;;6253653;28;20140;-65
2021/10/31 01:45:30;;;;;;;28.42;21.45;;;;;;;;;;6248150;28;20042;-66
2021/10/31 01:48:37;;;;;;;34.63;22.92;;;;;;;;;;6255473;28;20045;-66
2021/10/31 01:51:40;;;;;;;31.15;22.63;;;;;;;;;;6245773;28;20047;-65
2021/10/31 01:54:44;;;;;;;29.50;22.40;;;;;;;;;;6261401;28;20392;-64
2021/10/31 01:57:48;;;;;;;35.65;24.95;;;;;;;;;;6253277;28;20082;-65
2021/10/31 02:00:50;;;;;;;34.40;24.50;;;;;;;;;;6250524;28;20032;-65
2021/10/31 02:03:54;;;;;;;36.58;24.42;;;;;;;;;;6257333;28;20049;-64
2021/10/31 02:06:55;;;;;;;34.75;25.58;;;;;;;;;;6250455;28;20049;-65
2021/10/31 02:09:59;;;;;;;37.38;25.73;;;;;;;;;;6259987;28;20568;-65
2021/10/31 02:13:02;;;;;;;36.05;24.70;;;;;;;;;;6252831;28;20040;-65
2021/10/31 02:16:04;;;;;;;38.05;25.92;;;;;;;;;;6241443;28;20102;-65
2021/10/31 02:19:09;;;;;;;36.95;24.45;;;;;;;;;;6259446;28;20041;-65
2021/10/31 02:22:19;;;;;;;35.40;24.98;;;;;;;;;;6251970;28;20048;-65
2021/10/31 02:25:22;;;;;;;32.17;23.20;;;;;;;;;;6254229;28;20053;-66
2021/10/31 02:28:23;;;;;;;34.55;24.77;;;;;;;;;;6266668;28;20041;-64
2021/10/31 02:31:25;;;;;;;37.63;24.98;;;;;;;;;;6251758;28;20055;-64
2021/10/31 02:34:29;;;;;;;36.35;25.35;;;;;;;;;;6258789;28;20045;-64
2021/10/31 02:37:30;;;;;;;37.75;25.63;;;;;;;;;;6253515;28;20118;-65
2021/10/31 02:40:35;;;;;;;39.60;27.60;;;;;;;;;;6257153;28;20088;-65
2021/10/31 02:43:37;;;;;;;39.35;26.67;;;;;;;;;;6263345;28;20053;-64
2021/10/31 02:46:38;;;;;;;41.83;26.58;;;;;;;;;;6257016;28;20744;-65
2021/10/31 02:49:40;;;;;;;37.55;26.15;;;;;;;;;;6262643;28;20037;-65
2021/10/31 02:52:49;;;;;;;37.22;26.60;;;;;;;;;;6251331;28;20128;-65
2021/10/31 02:55:57;;;;;;;37.60;26.00;;;;;;;;;;6243891;28;20045;-65
2021/10/31 02:59:03;;;;;;;38.38;25.95;;;;;;;;;;6274728;28;20131;-65
2021/10/31 03:02:05;;;;;;;37.47;25.60;;;;;;;;;;6247325;28;20110;-65
2021/10/31 03:05:07;;;;;;;34.97;25.05;;;;;;;;;;6260342;28;20139;-66
2021/10/31 03:08:08;;;;;;;32.75;23.73;;;;;;;;;;6258539;28;20049;-65
2021/10/31 03:11:11;;;;;;;35.33;24.42;;;;;;;;;;6256883;28;20123;-66
2021/10/31 03:14:13;;;;;;;29.40;21.73;;;;;;;;;;6266759;28;20065;-66
2021/10/31 03:17:14;;;;;;;31.08;22.15;;;;;;;;;;6245885;28;20159;-67
2021/10/31 03:20:16;;;;;;;27.70;20.38;;;;;;;;;;6256256;28;20049;-67
2021/10/31 03:23:17;;;;;;;24.58;18.77;;;;;;;;;;6260458;28;20122;-66
2021/10/31 03:26:20;;;;;;;24.08;17.95;;;;;;;;;;6251975;28;20147;-65
2021/10/31 03:29:24;;;;;;;21.40;16.50;;;;;;;;;;6258667;28;20542;-65
2021/10/31 03:32:25;;;;;;;25.15;16.40;;;;;;;;;;6247206;28;20103;-65
2021/10/31 03:35:27;;;;;;;21.95;16.65;;;;;;;;;;6253226;28;20033;-65
2021/10/31 03:38:28;;;;;;;19.83;16.40;;;;;;;;;;6265017;28;20124;-65
2021/10/31 03:41:31;;;;;;;22.92;15.63;;;;;;;;;;6254015;28;20422;-65
2021/10/31 03:44:36;;;;;;;22.02;16.05;;;;;;;;;;6265379;28;20045;-64
2021/10/31 03:47:41;;;;;;;20.45;15.73;;;;;;;;;;6249097;28;20046;-65
2021/10/31 03:50:43;;;;;;;20.35;14.77;;;;;;;;;;6253163;28;20055;-65
2021/10/31 03:53:44;;;;;;;18.70;14.13;;;;;;;;;;6264180;28;20067;-65
2021/10/31 03:56:47;;;;;;;18.25;14.25;;;;;;;;;;6255131;28;20052;-65
2021/10/31 03:59:48;;;;;;;22.60;14.68;;;;;;;;;;6264721;28;20090;-65
2021/10/31 04:02:49;;;;;;;19.48;14.25;;;;;;;;;;6244516;28;20207;-64
2021/10/31 04:05:51;;;;;;;19.52;14.18;;;;;;;;;;6252144;28;20044;-64
2021/10/31 04:08:52;;;;;;;16.70;13.10;;;;;;;;;;6263459;28;20450;-65
2021/10/31 04:11:55;;;;;;;16.42;12.77;;;;;;;;;;6252771;28;20572;-65
2021/10/31 04:14:56;;;;;;;17.42;13.18;;;;;;;;;;6258622;28;20102;-66
2021/10/31 04:17:57;;;;;;;16.83;13.05;;;;;;;;;;6246606;28;20124;-65
2021/10/31 04:20:59;;;;;;;19.27;13.13;;;;;;;;;;6249410;28;20115;-65
2021/10/31 04:24:00;;;;;;;18.23;13.60;;;;;;;;;;6264692;28;20136;-65
2021/10/31 04:27:03;;;;;;;16.70;12.95;;;;;;;;;;6250625;28;20135;-65
2021/10/31 04:30:06;;;;;;;18.58;13.68;;;;;;;;;;6258080;28;20041;-66
2021/10/31 04:33:07;;;;;;;21.73;14.32;;;;;;;;;;6242370;28;20130;-65
2021/10/31 04:36:09;;;;;;;20.17;14.18;;;;;;;;;;6245843;28;20162;-65
2021/10/31 04:39:10;;;;;;;19.77;14.45;;;;;;;;;;6263881;28;20474;-65
2021/10/31 04:42:13;;;;;;;18.08;13.68;;;;;;;;;;6227853;28;20057;-65
2021/10/31 04:45:15;;;;;;;17.95;14.15;;;;;;;;;;6231008;28;20054;-66
2021/10/31 04:48:16;;;;;;;19.17;13.38;;;;;;;;;;6230172;28;20057;-65
2021/10/31 04:51:17;;;;;;;19.25;13.52;;;;;;;;;;6241383;28;20106;-64
2021/10/31 04:54:19;;;;;;;23.55;14.10;;;;;;;;;;6261383;28;20077;-65
2021/10/31 04:57:22;;;;;;;18.70;13.73;;;;;;;;;;6256137;28;20469;-65
2021/10/31 05:00:24;;;;;;;20.27;14.57;;;;;;;;;;6246361;28;20476;-65
2021/10/31 05:03:25;;;;;;;19.80;14.25;;;;;;;;;;6252990;28;20362;-64
2021/10/31 05:06:26;;;;;;;22.30;14.50;;;;;;;;;;6251828;28;20041;-65
2021/10/31 05:09:28;;;;;;;19.95;14.30;;;;;;;;;;6260568;28;20055;-65
2021/10/31 05:12:30;;;;;;;21.52;15.20;;;;;;;;;;6253349;28;20041;-65
2021/10/31 05:15:33;;;;;;;22.50;15.57;;;;;;;;;;6253288;28;20071;-65
2021/10/31 05:18:34;;;;;;;18.23;14.10;;;;;;;;;;6258945;28;20037;-65
2021/10/31 05:21:35;;;;;;;17.90;14.00;;;;;;;;;;6253021;28;20049;-65
2021/10/31 05:24:37;;;;;;;19.75;14.98;;;;;;;;;;6264331;28;20044;-65
2021/10/31 05:27:40;;;;;;;18.45;14.20;;;;;;;;;;6256122;28;20128;-65
2021/10/31 05:30:41;;;;;;;22.38;15.32;;;;;;;;;;6248579;28;20947;-64
2021/10/31 05:33:43;;;;;;;23.15;17.00;;;;;;;;;;6257378;28;21917;-64
2021/10/31 05:36:45;;;;;;;25.45;17.88;;;;;;;;;;6249053;28;20053;-64
2021/10/31 05:39:46;;;;;;;25.38;18.55;;;;;;;;;;6257500;28;20056;-67
2021/10/31 05:42:49;;;;;;;27.52;19.60;;;;;;;;;;6248772;28;20038;-67
2021/10/31 05:45:51;;;;;;;25.67;18.83;;;;;;;;;;6248133;28;20041;-67
2021/10/31 05:48:52;;;;;;;27.80;19.92;;;;;;;;;;6255008;28;20060;-67
2021/10/31 05:51:53;;;;;;;25.52;19.08;;;;;;;;;;6249042;28;20090;-67
2021/10/31 05:54:55;;;;;;;26.50;19.23;;;;;;;;;;6258785;28;20123;-67
2021/10/31 05:57:58;;;;;;;27.98;18.02;;;;;;;;;;6251575;28;20053;-67
2021/10/31 06:00:59;;;;;;;24.65;18.05;;;;;;;;;;6250690;28;20037;-64
2021/10/31 06:04:02;;;;;;;26.90;18.85;;;;;;;;;;6259719;28;20041;-67
2021/10/31 06:07:03;;;;;;;24.60;18.13;;;;;;;;;;6256457;28;21163;-66
2021/10/31 06:10:05;;;;;;;25.80;19.40;;;;;;;;;;6262954;28;20057;-65
2021/10/31 06:13:08;;;;;;;29.55;19.45;;;;;;;;;;6257486;28;20101;-65
2021/10/31 06:16:09;;;;;;;24.25;18.05;;;;;;;;;;6251180;28;20049;-65
2021/10/31 06:19:11;;;;;;;25.65;18.77;;;;;;;;;;6261023;28;20611;-63
2021/10/31 06:22:12;;;;;;;23.20;18.52;;;;;;;;;;6238092;28;20118;-63
2021/10/31 06:25:14;;;;;;;24.90;19.35;;;;;;;;;;6255966;28;20623;-67
2021/10/31 06:28:17;;;;;;;23.95;16.42;;;;;;;;;;6260978;28;20045;-66
2021/10/31 06:31:19;;;;;;;26.35;18.58;;;;;;;;;;6250931;28;20510;-65
2021/10/31 06:34:20;;;;;;;20.20;15.82;;;;;;;;;;6259223;28;20120;-65
2021/10/31 06:37:21;;;;;;;22.02;16.40;;;;;;;;;;6251339;28;20078;-66
2021/10/31 06:40:23;;;;;;;20.05;15.45;;;;;;;;;;6251936;28;20447;-66
2021/10/31 06:43:26;;;;;;;24.90;16.35;;;;;;;;;;6263096;28;20045;-66
2021/10/31 06:46:28;;;;;;;26.45;15.70;;;;;;;;;;6251910;28;20587;-65
2021/10/31 06:49:29;;;;;;;19.25;15.43;;;;;;;;;;6261384;28;20728;-65
2021/10/31 06:52:30;;;;;;;22.30;15.43;;;;;;;;;;6249902;28;20041;-66
2021/10/31 06:55:32;;;;;;;18.67;14.85;;;;;;;;;;6252587;28;20597;-64
2021/10/31 06:58:35;;;;;;;22.30;15.20;;;;;;;;;;6258359;28;21812;-65
2021/10/31 07:01:37;;;;;;;17.98;13.90;;;;;;;;;;6246706;28;20404;-65
2021/10/31 07:04:38;;;;;;;18.70;14.43;;;;;;;;;;6261114;28;20060;-65
2021/10/31 07:07:39;;;;;;;18.30;13.27;;;;;;;;;;6245007;28;20110;-66
2021/10/31 07:10:41;;;;;;;17.55;13.50;;;;;;;;;;6247372;28;20786;-65
2021/10/31 07:13:43;;;;;;;18.75;14.20;;;;;;;;;;6258745;28;20664;-66
2021/10/31 07:16:45;;;;;;;19.30;13.77;;;;;;;;;;6245370;28;20045;-66
2021/10/31 07:19:46;;;;;;;16.30;13.20;;;;;;;;;;6256099;28;20052;-66
2021/10/31 07:22:47;;;;;;;17.52;13.32;;;;;;;;;;6250354;28;20049;-66
2021/10/31 07:25:49;;;;;;;17.00;13.07;;;;;;;;;;6251793;28;20152;-66
2021/10/31 07:28:52;;;;;;;16.48;13.55;;;;;;;;;;6262285;28;20180;-66
2021/10/31 07:31:53;;;;;;;15.25;12.98;;;;;;;;;;6244524;28;20060;-66
2021/10/31 07:34:55;;;;;;;18.75;12.75;;;;;;;;;;6256417;28;20081;-66
2021/10/31 07:37:56;;;;;;;17.23;12.50;;;;;;;;;;6255770;28;20101;-66
2021/10/31 07:40:57;;;;;;;18.25;13.52;;;;;;;;;;6253374;28;20132;-67
2021/10/31 07:44:00;;;;;;;15.73;11.43;;;;;;;;;;6266873;28;20127;-66
2021/10/31 07:47:02;;;;;;;16.23;12.13;;;;;;;;;;6245201;28;20057;-66
2021/10/31 07:50:03;;;;;;;15.93;11.60;;;;;;;;;;6257324;28;20128;-65
2021/10/31 07:53:06;;;;;;;16.73;11.80;;;;;;;;;;6255849;28;20078;-66
2021/10/31 07:56:08;;;;;;;14.00;11.07;;;;;;;;;;6249584;28;20076;-66
2021/10/31 07:59:10;;;;;;;15.73;12.02;;;;;;;;;;6260412;28;20045;-66
2021/10/31 08:02:12;;;;;;;13.85;10.23;;;;;;;;;;6245658;28;20469;-65
2021/10/31 08:05:14;;;;;;;11.75;9.75;;;;;;;;;;6248497;28;20057;-65
2021/10/31 08:08:17;;;;;;;16.60;11.32;;;;;;;;;;6254079;28;20538;-66
2021/10/31 08:11:19;;;;;;;14.38;11.70;;;;;;;;;;6242507;28;20056;-67
2021/10/31 08:14:21;;;;;;;14.77;11.35;;;;;;;;;;6268503;28;20385;-66
2021/10/31 08:17:23;;;;;;;16.65;11.60;;;;;;;;;;6244737;28;20045;-66
2021/10/31 08:20:24;;;;;;;13.73;11.57;;;;;;;;;;6248090;28;20098;-66
2021/10/31 08:23:26;;;;;;;17.85;12.52;;;;;;;;;;6255138;28;20079;-66
2021/10/31 08:26:28;;;;;;;14.40;11.30;;;;;;;;;;6242837;28;20049;-65
2021/10/31 08:29:31;;;;;;;16.23;11.30;;;;;;;;;;6253632;28;20404;-65
2021/10/31 08:32:38;;;;;;;13.73;11.00;;;;;;;;;;6240245;28;20072;-65
2021/10/31 08:35:39;;;;;;;13.65;10.57;;;;;;;;;;6245363;28;20196;-66
2021/10/31 08:38:41;;;;;;;14.00;10.77;;;;;;;;;;6249046;28;20140;-65
2021/10/31 08:41:42;;;;;;;11.55;9.77;;;;;;;;;;6250472;28;20119;-65
2021/10/31 08:44:45;;;;;;;15.10;11.52;;;;;;;;;;6263490;28;20239;-65
2021/10/31 08:47:46;;;;;;;13.48;10.68;;;;;;;;;;6245417;28;20088;-65
2021/10/31 08:50:48;;;;;;;12.13;10.02;;;;;;;;;;6247306;28;20490;-65
2021/10/31 08:53:50;;;;;;;16.08;11.35;;;;;;;;;;6259788;28;20044;-65
2021/10/31 08:56:51;;;;;;;13.90;10.77;;;;;;;;;;6251206;28;20080;-65
2021/10/31 08:59:54;;;;;;;12.88;10.30;;;;;;;;;;6253839;28;20072;-65
2021/10/31 09:02:55;;;;;;;14.43;10.48;;;;;;;;;;6241323;28;20090;-65
2021/10/31 09:05:56;;;;;;;13.50;9.13;;;;;;;;;;6248319;28;20059;-66
2021/10/31 09:08:58;;;;;;;13.65;9.77;;;;;;;;;;6259328;28;20150;-65
2021/10/31 09:12:00;;;;;;;11.13;9.77;;;;;;;;;;6252583;28;20041;-66
2021/10/31 09:15:02;;;;;;;16.90;10.48;;;;;;;;;;6262278;28;20068;-65
2021/10/31 09:18:04;;;;;;;13.18;10.20;;;;;;;;;;6242077;28;20045;-65
2021/10/31 09:21:06;;;;;;;13.77;10.23;;;;;;;;;;6249107;28;20048;-66
2021/10/31 09:24:08;;;;;;;13.45;9.98;;;;;;;;;;6255750;28;20116;-65
2021/10/31 09:27:09;;;;;;;14.20;10.18;;;;;;;;;;6245187;28;20179;-65
2021/10/31 09:30:12;;;;;;;12.95;10.55;;;;;;;;;;6254392;28;20100;-65
2021/10/31 09:33:15;;;;;;;12.70;10.47;;;;;;;;;;6251853;28;20059;-65
2021/10/31 09:36:16;;;;;;;14.27;10.68;;;;;;;;;;6247244;28;21033;-65
2021/10/31 09:39:17;;;;;;;12.93;10.25;;;;;;;;;;6258007;28;20128;-65
2021/10/31 09:42:19;;;;;;;12.38;9.80;;;;;;;;;;6250931;28;20049;-65
2021/10/31 09:45:23;;;;;;;12.18;9.77;;;;;;;;;;6254104;28;20044;-65
2021/10/31 09:48:24;;;;;;;;;;;;;;;;;;6258478;28;20055;-65
2021/10/31 09:51:25;;;;;;;12.40;10.10;;;;;;;;;;6252244;28;20361;-65
2021/10/31 09:54:27;;;;;;;13.57;9.88;;;;;;;;;;6260538;28;20479;-65
2021/10/31 09:57:28;;;;;;;13.52;10.63;;;;;;;;;;6248855;28;20049;-65
2021/10/31 10:00:35;;;;;;;13.45;10.40;;;;;;;;;;6248246;28;20120;-65
2021/10/31 10:03:37;;;;;;;15.43;11.18;;;;;;;;;;6251365;28;20116;-65
2021/10/31 10:06:49;;;;;;;12.10;10.43;;;;;;;;;;6250400;28;20041;-65
2021/10/31 10:09:51;;;;;;;14.73;10.98;;;;;;;;;;6254768;28;20136;-66
2021/10/31 10:12:52;;;;;;;15.15;11.45;;;;;;;;;;6252306;28;20165;-65
2021/10/31 10:16:10;;;;;;;16.10;11.13;;;;;;;;;;6244763;28;20664;-65
2021/10/31 10:19:16;;;;;;;13.60;10.80;;;;;;;;;;6256375;28;20067;-65
2021/10/31 10:22:18;;;;;;;14.98;10.82;;;;;;;;;;6241286;28;20045;-65
2021/10/31 10:25:20;;;;;;;13.52;11.00;;;;;;;;;;6249333;28;20111;-65
2021/10/31 10:28:25;;;;;;;15.68;11.65;;;;;;;;;;6258580;28;20114;-67
2021/10/31 10:31:28;;;;;;;13.18;11.18;;;;;;;;;;6241251;28;20187;-65
2021/10/31 10:34:41;;;;;;;17.57;12.30;;;;;;;;;;6231816;28;20041;-67
2021/10/31 10:37:43;;;;;;;13.15;10.93;;;;;;;;;;6221839;28;20143;-66
2021/10/31 10:40:44;;;;;;;13.95;11.27;;;;;;;;;;6225455;28;20135;-66
2021/10/31 10:43:46;;;;;;;13.10;10.95;;;;;;;;;;6235975;28;20049;-66
2021/10/31 10:46:50;;;;;;;18.50;11.88;;;;;;;;;;6245519;28;20460;-66
2021/10/31 10:49:53;;;;;;;16.65;10.98;;;;;;;;;;6260710;28;20090;-68
2021/10/31 10:52:55;;;;;;;13.48;11.02;;;;;;;;;;6248744;28;20045;-68
2021/10/31 10:56:09;;;;;;;13.10;11.48;;;;;;;;;;6251043;28;20044;-67
2021/10/31 10:59:20;;;;;;;14.30;11.90;;;;;;;;;;6265469;28;20037;-68
2021/10/31 11:02:24;;;;;;;14.90;11.02;;;;;;;;;;6245316;28;20053;-67
2021/10/31 11:05:27;;;;;;;12.25;10.95;;;;;;;;;;6252972;28;20040;-68
2021/10/31 11:08:29;;;;;;;13.07;11.48;;;;;;;;;;6259998;28;20056;-67
2021/10/31 11:11:30;;;;;;;14.48;11.30;;;;;;;;;;6253009;28;20049;-67
2021/10/31 11:14:31;;;;;;;18.52;11.68;;;;;;;;;;6259491;28;20110;-68
2021/10/31 11:17:35;;;;;;;13.43;11.55;;;;;;;;;;6245081;28;20140;-67
2021/10/31 11:20:37;;;;;;;13.05;10.27;;;;;;;;;;6251144;28;20410;-67
2021/10/31 11:23:39;;;;;;;13.27;10.38;;;;;;;;;;6259871;28;20041;-66
2021/10/31 11:26:41;;;;;;;12.75;9.95;;;;;;;;;;6254282;28;20098;-66
2021/10/31 11:29:44;;;;;;;13.52;10.57;;;;;;;;;;6261835;28;20423;-66
2021/10/31 11:32:47;;;;;;;14.23;11.00;;;;;;;;;;6245001;28;20041;-66
2021/10/31 11:35:48;;;;;;;13.73;10.50;;;;;;;;;;6256454;28;20036;-66
2021/10/31 11:38:50;;;;;;;12.10;10.40;;;;;;;;;;6269659;28;20042;-66
2021/10/31 11:41:52;;;;;;;14.98;10.70;;;;;;;;;;6261807;28;20041;-66
2021/10/31 11:44:57;;;;;;;12.90;10.48;;;;;;;;;;6265869;28;20049;-66
2021/10/31 11:48:10;;;;;;;14.45;10.70;;;;;;;;;;6240563;28;20045;-66
2021/10/31 11:51:13;;;;;;;12.93;10.75;;;;;;;;;;6253235;28;20136;-67
2021/10/31 11:54:15;;;;;;;12.35;10.32;;;;;;;;;;6260463;28;20053;-66
2021/10/31 11:57:26;;;;;;;12.77;10.13;;;;;;;;;;6253043;28;20139;-66
2021/10/31 12:00:27;;;;;;;13.00;10.30;;;;;;;;;;6248247;28;20045;-67
2021/10/31 12:03:43;;;;;;;11.95;10.43;;;;;;;;;;6256553;28;20041;-66
2021/10/31 12:06:46;;;;;;;14.00;11.50;;;;;;;;;;6243800;28;20061;-66
2021/10/31 12:09:56;;;;;;;15.90;11.32;;;;;;;;;;6260024;28;20045;-66
2021/10/31 12:13:14;;;;;;;14.82;10.88;;;;;;;;;;6248887;28;20137;-66
2021/10/31 12:16:16;;;;;;;14.05;11.18;;;;;;;;;;6241446;28;20094;-66
2021/10/31 12:19:22;;;;;;;13.02;10.82;;;;;;;;;;6259152;28;20049;-66
2021/10/31 12:22:33;;;;;;;15.90;10.85;;;;;;;;;;6248466;28;20045;-66
2021/10/31 12:25:39;;;;;;;13.88;10.93;;;;;;;;;;6250492;28;20153;-66
2021/10/31 12:28:41;;;;;;;15.25;11.30;;;;;;;;;;6259164;28;20063;-66
2021/10/31 12:31:52;;;;;;;14.32;11.10;;;;;;;;;;6236754;28;20071;-66
2021/10/31 12:34:55;;;;;;;14.90;12.02;;;;;;;;;;6257273;28;20053;-65
2021/10/31 12:38:11;;;;;;;16.45;11.77;;;;;;;;;;6249451;28;20057;-65
2021/10/31 12:41:21;;;;;;;17.95;12.13;;;;;;;;;;6254060;28;20048;-65
2021/10/31 12:44:22;;;;;;;14.63;11.82;;;;;;;;;;6263315;28;20041;-64
2021/10/31 12:47:26;;;;;;;15.30;11.43;;;;;;;;;;6241544;28;20033;-65
2021/10/31 12:50:29;;;;;;;14.80;11.82;;;;;;;;;;6254967;28;20691;-66
2021/10/31 12:53:39;;;;;;;13.57;11.20;;;;;;;;;;6258015;28;20404;-67
2021/10/31 12:56:40;;;;;;;14.40;11.75;;;;;;;;;;6252219;28;20120;-64
2021/10/31 12:59:49;;;;;;;14.85;12.20;;;;;;;;;;6268118;28;20052;-65
2021/10/31 13:02:52;;;;;;;15.07;12.07;;;;;;;;;;6239698;28;20372;-65
2021/10/31 13:05:54;;;;;;;16.10;11.57;;;;;;;;;;6247934;28;20144;-64
2021/10/31 13:08:56;;;;;;;16.25;12.35;;;;;;;;;;6260700;28;20044;-64
2021/10/31 13:11:58;;;;;;;15.35;11.90;;;;;;;;;;6252265;28;20056;-64
2021/10/31 13:15:07;;;;;;;13.85;11.35;;;;;;;;;;6262094;28;20069;-64
2021/10/31 13:18:12;;;;;;;15.88;11.02;;;;;;;;;;6248065;28;20049;-65
2021/10/31 13:21:20;;;;;;;13.82;11.13;;;;;;;;;;6245098;28;20045;-65
2021/10/31 13:24:21;;;;;;;15.45;11.88;;;;;;;;;;6259517;28;20783;-65
2021/10/31 13:27:25;;;;;;;16.83;12.00;;;;;;;;;;6253638;28;20500;-64
2021/10/31 13:30:28;;;;;;;14.43;11.18;;;;;;;;;;6245158;28;20529;-65
2021/10/31 13:33:33;;;;;;;18.40;11.73;;;;;;;;;;6258232;28;20591;-64
2021/10/31 13:36:37;;;;;;;15.48;11.73;;;;;;;;;;6247991;28;20512;-64
2021/10/31 13:39:38;;;;;;;17.55;12.85;;;;;;;;;;6259899;28;20098;-65
2021/10/31 13:42:41;;;;;;;13.93;11.07;;;;;;;;;;6254042;28;20302;-64
2021/10/31 13:45:43;;;;;;;18.10;13.00;;;;;;;;;;6251638;28;20088;-65
2021/10/31 13:48:47;;;;;;;15.23;11.85;;;;;;;;;;6260356;28;20131;-64
2021/10/31 13:51:51;;;;;;;15.20;11.40;;;;;;;;;;6248494;28;20523;-65
2021/10/31 13:54:53;;;;;;;15.68;12.13;;;;;;;;;;6259745;28;20041;-65
2021/10/31 13:57:54;;;;;;;14.88;11.63;;;;;;;;;;6252245;28;20052;-65
2021/10/31 14:00:56;;;;;;;14.18;11.40;;;;;;;;;;6247320;28;20067;-65
2021/10/31 14:04:05;;;;;;;14.73;11.98;;;;;;;;;;6256522;28;20045;-65
2021/10/31 14:07:11;;;;;;;15.32;11.95;;;;;;;;;;6253575;28;20057;-64
2021/10/31 14:10:14;;;;;;;14.30;11.88;;;;;;;;;;6251385;28;20128;-66
2021/10/31 14:13:16;;;;;;;15.43;12.00;;;;;;;;;;6260750;28;20397;-66
2021/10/31 14:16:21;;;;;;;17.45;11.85;;;;;;;;;;6249397;28;20057;-66
2021/10/31 14:19:23;;;;;;;13.82;10.95;;;;;;;;;;6259514;28;20041;-66
2021/10/31 14:22:27;;;;;;;15.13;11.05;;;;;;;;;;6254994;28;20492;-66
2021/10/31 14:25:30;;;;;;;14.85;11.38;;;;;;;;;;6255458;28;20128;-66
2021/10/31 14:28:32;;;;;;;14.23;11.17;;;;;;;;;;6262733;28;20041;-66
2021/10/31 14:31:36;;;;;;;14.40;10.98;;;;;;;;;;6247934;28;20041;-66
2021/10/31 14:34:52;;;;;;;14.57;10.35;;;;;;;;;;6262158;28;20505;-67
2021/10/31 14:38:08;;;;;;;13.32;11.48;;;;;;;;;;6254491;28;20041;-67
2021/10/31 14:41:11;;;;;;;16.95;11.20;;;;;;;;;;6254639;28;20633;-66
2021/10/31 14:44:14;;;;;;;15.02;10.70;;;;;;;;;;6269614;28;20048;-66
2021/10/31 14:47:16;;;;;;;14.85;10.55;;;;;;;;;;6246019;28;20092;-66
2021/10/31 14:50:17;;;;;;;15.30;10.93;;;;;;;;;;6253928;28;20060;-66
2021/10/31 14:53:21;;;;;;;15.02;11.82;;;;;;;;;;6258142;28;20183;-66
2021/10/31 14:56:24;;;;;;;13.80;11.35;;;;;;;;;;6251444;28;20041;-66
2021/10/31 14:59:26;;;;;;;14.60;12.32;;;;;;;;;;6267994;28;20041;-66
2021/10/31 15:02:27;;;;;;;17.63;12.25;;;;;;;;;;6234221;28;20045;-66
2021/10/31 15:05:30;;;;;;;15.25;11.45;;;;;;;;;;6232119;28;20924;-65
2021/10/31 15:08:35;;;;;;;15.70;11.88;;;;;;;;;;6244371;28;20453;-66
2021/10/31 15:11:37;;;;;;;14.45;12.02;;;;;;;;;;6259889;28;20059;-66
2021/10/31 15:14:39;;;;;;;18.45;11.40;;;;;;;;;;6259459;28;20178;-64
2021/10/31 15:17:45;;;;;;;179.38;100.65;;;;;;;;;;6245542;28;20053;-66
2021/10/31 15:20:51;;;;;;;68.30;37.33;;;;;;;;;;6251658;28;20055;-67
2021/10/31 15:23:55;;;;;;;80.75;44.92;;;;;;;;;;6263883;28;20059;-66
2021/10/31 15:26:56;;;;;;;124.28;68.15;;;;;;;;;;6254047;28;20176;-66
2021/10/31 15:29:58;;;;;;;66.70;37.45;;;;;;;;;;6260411;28;20114;-65
2021/10/31 15:33:01;;;;;;;15.68;12.55;;;;;;;;;;6249689;28;20049;-65
2021/10/31 15:36:02;;;;;;;15.05;11.52;;;;;;;;;;6252332;28;20511;-65
2021/10/31 15:39:08;;;;;;;14.57;11.55;;;;;;;;;;6265551;28;20134;-64
2021/10/31 15:42:09;;;;;;;15.60;11.43;;;;;;;;;;6257862;28;20045;-65
2021/10/31 15:45:11;;;;;;;17.17;12.43;;;;;;;;;;6265650;28;20053;-65
2021/10/31 15:48:12;;;;;;;20.30;13.40;;;;;;;;;;6259564;28;20459;-65
2021/10/31 15:51:14;;;;;;;14.65;12.27;;;;;;;;;;6260260;28;20045;-65
2021/10/31 15:54:17;;;;;;;16.70;12.93;;;;;;;;;;6272498;28;20041;-65
2021/10/31 15:57:19;;;;;;;18.95;14.30;;;;;;;;;;6252801;28;20045;-65
2021/10/31 16:00:21;;;;;;;20.30;14.30;;;;;;;;;;6262580;28;20068;-65
2021/10/31 16:03:26;;;;;;;21.65;15.50;;;;;;;;;;6263442;28;20098;-65
2021/10/31 16:06:28;;;;;;;20.55;15.05;;;;;;;;;;6259986;28;20056;-65
2021/10/31 16:09:31;;;;;;;20.75;15.02;;;;;;;;;;6271700;28;20194;-65
2021/10/31 16:12:32;;;;;;;20.00;15.23;;;;;;;;;;6266647;28;20098;-65
2021/10/31 16:15:34;;;;;;;20.92;15.23;;;;;;;;;;6263731;28;20142;-65
2021/10/31 16:18:35;;;;;;;19.90;15.35;;;;;;;;;;6260845;28;20103;-65
2021/10/31 16:21:37;;;;;;;19.75;15.40;;;;;;;;;;6251916;28;20057;-65
2021/10/31 16:24:39;;;;;;;20.50;15.38;;;;;;;;;;6267866;28;20063;-65
2021/10/31 16:27:41;;;;;;;19.67;15.32;;;;;;;;;;6257253;28;20041;-65
2021/10/31 16:30:42;;;;;;;22.52;16.35;;;;;;;;;;6255621;28;20710;-65
2021/10/31 16:33:44;;;;;;;24.17;16.00;;;;;;;;;;6260373;28;20092;-65
2021/10/31 16:36:45;;;;;;;21.88;16.38;;;;;;;;;;6254940;28;20132;-65
2021/10/31 16:39:48;;;;;;;23.33;16.77;;;;;;;;;;6264715;28;20132;-65
2021/10/31 16:42:51;;;;;;;24.67;17.15;;;;;;;;;;6256945;28;20091;-64
2021/10/31 16:45:54;;;;;;;23.42;16.70;;;;;;;;;;6255636;28;20052;-65
2021/10/31 16:48:56;;;;;;;23.05;17.00;;;;;;;;;;6265456;28;20061;-64
2021/10/31 16:51:57;;;;;;;21.35;16.17;;;;;;;;;;6256765;28;20800;-64
2021/10/31 16:55:00;;;;;;;21.08;16.13;;;;;;;;;;6264718;28;20077;-64
2021/10/31 16:58:02;;;;;;;20.80;15.77;;;;;;;;;;6259763;28;20575;-64
2021/10/31 17:01:04;;;;;;;22.08;16.20;;;;;;;;;;6252346;28;20068;-65
2021/10/31 17:04:06;;;;;;;23.35;16.45;;;;;;;;;;6261937;28;20177;-65
2021/10/31 17:07:07;;;;;;;19.98;15.55;;;;;;;;;;6254750;28;20589;-64
2021/10/31 17:10:29;;;;;;;22.23;16.67;;;;;;;;;;6262134;28;20412;-65
2021/10/31 17:13:31;;;;;;;21.98;16.58;;;;;;;;;;6268128;28;20044;-65
2021/10/31 17:16:32;;;;;;;21.33;16.77;;;;;;;;;;6253392;28;20045;-65
2021/10/31 17:19:34;;;;;;;20.30;15.70;;;;;;;;;;6269022;28;20087;-64
2021/10/31 17:22:35;;;;;;;23.52;16.73;;;;;;;;;;6256134;28;20412;-65
2021/10/31 17:25:38;;;;;;;23.95;16.15;;;;;;;;;;6254397;28;20136;-65
2021/10/31 17:28:39;;;;;;;23.58;17.52;;;;;;;;;;6263609;28;20490;-65
2021/10/31 17:31:41;;;;;;;21.17;15.95;;;;;;;;;;6242100;28;20523;-65
2021/10/31 17:34:42;;;;;;;23.02;15.93;;;;;;;;;;6263061;28;20045;-65
2021/10/31 17:37:43;;;;;;;21.85;15.65;;;;;;;;;;6253254;28;20127;-65
2021/10/31 17:40:46;;;;;;;21.83;15.35;;;;;;;;;;6256163;28;20136;-65
2021/10/31 17:43:48;;;;;;;21.60;16.60;;;;;;;;;;6267657;28;20109;-65
2021/10/31 17:46:49;;;;;;;22.50;15.38;;;;;;;;;;6248858;28;20049;-65